sensor_id;sensor_type;location;lat;lon;timestamp;P1;durP1;ratioP1;P2;durP2;ratioP2
73693;SDS011;61997;53.974;11.670;2023-03-31T00:01:46;68.53;;;35.65;;
73693;SDS011;61997;53.974;11.670;2023-03-31T00:04:12;67.28;;;36.00;;
73693;SDS011;61997;53.974;11.670;2023-03-31T00:06:38;64.32;;;36.05;;
73693;SDS011;61997;53.974;11.670;2023-03-31T00:09:10;63.58;;;33.92;;
73693;SDS011;61997;53.974;11.670;2023-03-31T00:11:37;61.78;;;34.22;;
73693;SDS011;61997;53.974;11.670;2023-03-31T00:14:03;65.55;;;36.10;;
73693;SDS011;61997;53.974;11.670;2023-03-31T00:16:31;60.60;;;34.47;;
73693;SDS011;61997;53.974;11.670;2023-03-31T00:18:57;64.88;;;34.35;;
73693;SDS011;61997;53.974;11.670;2023-03-31T00:21:22;61.42;;;33.25;;
73693;SDS011;61997;53.974;11.670;2023-03-31T00:24:02;61.15;;;33.70;;
73693;SDS011;61997;53.974;11.670;2023-03-31T00:26:29;68.18;;;33.33;;
73693;SDS011;61997;53.974;11.670;2023-03-31T00:28:56;65.57;;;33.28;;
73693;SDS011;61997;53.974;11.670;2023-03-31T00:31:22;62.50;;;31.77;;
73693;SDS011;61997;53.974;11.670;2023-03-31T00:33:47;56.28;;;31.95;;
73693;SDS011;61997;53.974;11.670;2023-03-31T00:36:13;58.47;;;31.13;;
73693;SDS011;61997;53.974;11.670;2023-03-31T00:38:45;57.63;;;31.75;;
73693;SDS011;61997;53.974;11.670;2023-03-31T00:41:14;55.63;;;30.65;;
73693;SDS011;61997;53.974;11.670;2023-03-31T00:43:40;53.00;;;30.83;;
73693;SDS011;61997;53.974;11.670;2023-03-31T00:46:09;59.92;;;30.40;;
73693;SDS011;61997;53.974;11.670;2023-03-31T00:48:41;54.03;;;29.40;;
73693;SDS011;61997;53.974;11.670;2023-03-31T00:51:11;55.03;;;29.45;;
73693;SDS011;61997;53.974;11.670;2023-03-31T00:53:37;53.78;;;28.85;;
73693;SDS011;61997;53.974;11.670;2023-03-31T00:56:08;53.83;;;29.67;;
73693;SDS011;61997;53.974;11.670;2023-03-31T00:58:37;50.88;;;27.52;;
73693;SDS011;61997;53.974;11.670;2023-03-31T01:01:07;52.20;;;27.92;;
73693;SDS011;61997;53.974;11.670;2023-03-31T01:03:35;55.75;;;28.38;;
73693;SDS011;61997;53.974;11.670;2023-03-31T01:06:03;49.60;;;26.92;;
73693;SDS011;61997;53.974;11.670;2023-03-31T01:08:29;47.22;;;26.83;;
73693;SDS011;61997;53.974;11.670;2023-03-31T01:10:57;53.42;;;27.90;;
73693;SDS011;61997;53.974;11.670;2023-03-31T01:13:25;53.60;;;27.92;;
73693;SDS011;61997;53.974;11.670;2023-03-31T01:15:51;51.85;;;27.52;;
73693;SDS011;61997;53.974;11.670;2023-03-31T01:18:17;51.78;;;26.50;;
73693;SDS011;61997;53.974;11.670;2023-03-31T01:29:16;42.10;;;24.58;;
73693;SDS011;61997;53.974;11.670;2023-03-31T01:32:13;45.60;;;24.58;;
73693;SDS011;61997;53.974;11.670;2023-03-31T01:34:55;43.58;;;24.65;;
73693;SDS011;61997;53.974;11.670;2023-03-31T01:40:47;46.15;;;23.83;;
73693;SDS011;61997;53.974;11.670;2023-03-31T01:43:31;41.17;;;22.65;;
73693;SDS011;61997;53.974;11.670;2023-03-31T01:46:09;42.15;;;22.58;;
73693;SDS011;61997;53.974;11.670;2023-03-31T01:57:18;40.72;;;21.88;;
73693;SDS011;61997;53.974;11.670;2023-03-31T02:02:25;43.47;;;21.80;;
73693;SDS011;61997;53.974;11.670;2023-03-31T02:04:54;41.03;;;20.08;;
73693;SDS011;61997;53.974;11.670;2023-03-31T02:07:25;41.15;;;21.48;;
73693;SDS011;61997;53.974;11.670;2023-03-31T02:09:55;38.72;;;20.15;;
73693;SDS011;61997;53.974;11.670;2023-03-31T02:14:48;40.63;;;20.05;;
73693;SDS011;61997;53.974;11.670;2023-03-31T02:17:17;36.55;;;20.25;;
73693;SDS011;61997;53.974;11.670;2023-03-31T02:19:45;35.58;;;19.48;;
73693;SDS011;61997;53.974;11.670;2023-03-31T02:22:13;34.85;;;19.05;;
73693;SDS011;61997;53.974;11.670;2023-03-31T02:24:41;37.28;;;18.70;;
73693;SDS011;61997;53.974;11.670;2023-03-31T02:27:20;34.85;;;18.88;;
73693;SDS011;61997;53.974;11.670;2023-03-31T02:29:48;32.63;;;18.73;;
73693;SDS011;61997;53.974;11.670;2023-03-31T02:32:25;36.88;;;19.77;;
73693;SDS011;61997;53.974;11.670;2023-03-31T02:34:56;32.55;;;19.45;;
73693;SDS011;61997;53.974;11.670;2023-03-31T02:37:22;37.35;;;17.58;;
73693;SDS011;61997;53.974;11.670;2023-03-31T02:39:47;30.45;;;19.02;;
73693;SDS011;61997;53.974;11.670;2023-03-31T02:42:15;34.95;;;19.45;;
73693;SDS011;61997;53.974;11.670;2023-03-31T02:44:40;31.67;;;18.45;;
73693;SDS011;61997;53.974;11.670;2023-03-31T02:47:11;32.78;;;17.60;;
73693;SDS011;61997;53.974;11.670;2023-03-31T02:49:39;29.23;;;16.13;;
73693;SDS011;61997;53.974;11.670;2023-03-31T03:00:05;31.98;;;16.63;;
73693;SDS011;61997;53.974;11.670;2023-03-31T03:13:05;27.50;;;15.20;;
73693;SDS011;61997;53.974;11.670;2023-03-31T03:15:48;24.02;;;14.63;;
73693;SDS011;61997;53.974;11.670;2023-03-31T03:18:16;30.80;;;14.82;;
73693;SDS011;61997;53.974;11.670;2023-03-31T03:20:42;28.42;;;14.77;;
73693;SDS011;61997;53.974;11.670;2023-03-31T03:23:12;26.65;;;14.32;;
73693;SDS011;61997;53.974;11.670;2023-03-31T03:25:38;25.73;;;14.50;;
73693;SDS011;61997;53.974;11.670;2023-03-31T03:28:03;21.23;;;12.88;;
73693;SDS011;61997;53.974;11.670;2023-03-31T03:30:29;23.83;;;13.43;;
73693;SDS011;61997;53.974;11.670;2023-03-31T03:32:54;26.23;;;14.45;;
73693;SDS011;61997;53.974;11.670;2023-03-31T03:35:20;24.67;;;14.13;;
73693;SDS011;61997;53.974;11.670;2023-03-31T03:37:45;20.80;;;12.55;;
73693;SDS011;61997;53.974;11.670;2023-03-31T03:40:11;24.92;;;13.13;;
73693;SDS011;61997;53.974;11.670;2023-03-31T03:42:36;23.70;;;13.32;;
73693;SDS011;61997;53.974;11.670;2023-03-31T03:45:02;25.73;;;13.52;;
73693;SDS011;61997;53.974;11.670;2023-03-31T03:47:28;27.67;;;14.15;;
73693;SDS011;61997;53.974;11.670;2023-03-31T03:49:53;24.67;;;12.73;;
73693;SDS011;61997;53.974;11.670;2023-03-31T03:52:19;24.52;;;12.65;;
73693;SDS011;61997;53.974;11.670;2023-03-31T03:54:45;23.65;;;13.00;;
73693;SDS011;61997;53.974;11.670;2023-03-31T03:57:10;22.50;;;12.63;;
73693;SDS011;61997;53.974;11.670;2023-03-31T03:59:36;26.40;;;12.68;;
73693;SDS011;61997;53.974;11.670;2023-03-31T04:02:01;28.23;;;12.57;;
73693;SDS011;61997;53.974;11.670;2023-03-31T04:04:26;21.23;;;11.48;;
73693;SDS011;61997;53.974;11.670;2023-03-31T04:06:52;24.38;;;12.63;;
73693;SDS011;61997;53.974;11.670;2023-03-31T04:09:17;23.88;;;11.98;;
73693;SDS011;61997;53.974;11.670;2023-03-31T04:11:42;23.65;;;12.75;;
73693;SDS011;61997;53.974;11.670;2023-03-31T04:14:08;22.13;;;11.68;;
73693;SDS011;61997;53.974;11.670;2023-03-31T04:16:33;24.13;;;11.82;;
73693;SDS011;61997;53.974;11.670;2023-03-31T04:18:59;20.60;;;11.98;;
73693;SDS011;61997;53.974;11.670;2023-03-31T04:21:28;24.20;;;11.75;;
73693;SDS011;61997;53.974;11.670;2023-03-31T04:23:55;21.08;;;10.55;;
73693;SDS011;61997;53.974;11.670;2023-03-31T04:26:26;21.48;;;11.65;;
73693;SDS011;61997;53.974;11.670;2023-03-31T04:29:03;20.33;;;11.70;;
73693;SDS011;61997;53.974;11.670;2023-03-31T04:31:29;21.08;;;11.25;;
73693;SDS011;61997;53.974;11.670;2023-03-31T04:33:54;17.95;;;10.98;;
73693;SDS011;61997;53.974;11.670;2023-03-31T04:36:25;18.58;;;10.50;;
73693;SDS011;61997;53.974;11.670;2023-03-31T04:38:50;20.27;;;11.10;;
73693;SDS011;61997;53.974;11.670;2023-03-31T04:41:18;17.40;;;10.27;;
73693;SDS011;61997;53.974;11.670;2023-03-31T04:43:47;19.52;;;10.50;;
73693;SDS011;61997;53.974;11.670;2023-03-31T04:46:13;18.33;;;10.25;;
73693;SDS011;61997;53.974;11.670;2023-03-31T04:48:38;17.55;;;9.98;;
73693;SDS011;61997;53.974;11.670;2023-03-31T04:51:04;19.80;;;10.35;;
73693;SDS011;61997;53.974;11.670;2023-03-31T04:53:29;15.50;;;9.50;;
73693;SDS011;61997;53.974;11.670;2023-03-31T04:55:55;17.88;;;10.65;;
73693;SDS011;61997;53.974;11.670;2023-03-31T04:58:21;18.67;;;9.70;;
73693;SDS011;61997;53.974;11.670;2023-03-31T05:00:46;18.92;;;10.63;;
73693;SDS011;61997;53.974;11.670;2023-03-31T05:03:11;18.00;;;9.40;;
73693;SDS011;61997;53.974;11.670;2023-03-31T05:05:37;19.73;;;9.80;;
73693;SDS011;61997;53.974;11.670;2023-03-31T05:08:02;17.67;;;9.30;;
73693;SDS011;61997;53.974;11.670;2023-03-31T05:10:29;18.25;;;8.90;;
73693;SDS011;61997;53.974;11.670;2023-03-31T05:12:54;14.38;;;9.18;;
73693;SDS011;61997;53.974;11.670;2023-03-31T05:15:20;16.50;;;8.73;;
73693;SDS011;61997;53.974;11.670;2023-03-31T05:17:45;15.68;;;8.95;;
73693;SDS011;61997;53.974;11.670;2023-03-31T05:20:11;16.90;;;8.40;;
73693;SDS011;61997;53.974;11.670;2023-03-31T05:22:37;14.77;;;8.23;;
73693;SDS011;61997;53.974;11.670;2023-03-31T05:25:04;19.17;;;9.38;;
73693;SDS011;61997;53.974;11.670;2023-03-31T05:27:31;16.92;;;8.98;;
73693;SDS011;61997;53.974;11.670;2023-03-31T05:29:57;14.93;;;8.00;;
73693;SDS011;61997;53.974;11.670;2023-03-31T05:32:22;14.90;;;8.25;;
73693;SDS011;61997;53.974;11.670;2023-03-31T05:34:48;14.68;;;8.07;;
73693;SDS011;61997;53.974;11.670;2023-03-31T05:37:16;16.40;;;8.77;;
73693;SDS011;61997;53.974;11.670;2023-03-31T05:39:42;14.30;;;8.73;;
73693;SDS011;61997;53.974;11.670;2023-03-31T05:42:07;14.68;;;8.75;;
73693;SDS011;61997;53.974;11.670;2023-03-31T05:44:33;14.65;;;7.88;;
73693;SDS011;61997;53.974;11.670;2023-03-31T05:46:58;12.25;;;7.45;;
73693;SDS011;61997;53.974;11.670;2023-03-31T05:49:24;14.98;;;8.18;;
73693;SDS011;61997;53.974;11.670;2023-03-31T05:51:49;16.13;;;8.68;;
73693;SDS011;61997;53.974;11.670;2023-03-31T05:54:15;14.15;;;7.07;;
73693;SDS011;61997;53.974;11.670;2023-03-31T05:56:41;15.77;;;7.80;;
73693;SDS011;61997;53.974;11.670;2023-03-31T05:59:06;14.63;;;7.20;;
73693;SDS011;61997;53.974;11.670;2023-03-31T06:01:31;15.57;;;7.50;;
73693;SDS011;61997;53.974;11.670;2023-03-31T06:03:57;11.48;;;6.95;;
73693;SDS011;61997;53.974;11.670;2023-03-31T06:06:22;13.75;;;7.35;;
73693;SDS011;61997;53.974;11.670;2023-03-31T06:08:48;14.15;;;7.57;;
73693;SDS011;61997;53.974;11.670;2023-03-31T06:11:15;13.57;;;7.38;;
73693;SDS011;61997;53.974;11.670;2023-03-31T06:13:43;12.63;;;6.63;;
73693;SDS011;61997;53.974;11.670;2023-03-31T06:16:09;12.98;;;6.38;;
73693;SDS011;61997;53.974;11.670;2023-03-31T06:18:36;14.82;;;7.55;;
73693;SDS011;61997;53.974;11.670;2023-03-31T06:21:02;11.20;;;6.88;;
73693;SDS011;61997;53.974;11.670;2023-03-31T06:23:28;12.50;;;7.45;;
73693;SDS011;61997;53.974;11.670;2023-03-31T06:25:53;12.43;;;6.95;;
73693;SDS011;61997;53.974;11.670;2023-03-31T06:28:19;13.73;;;7.20;;
73693;SDS011;61997;53.974;11.670;2023-03-31T06:30:45;11.25;;;7.22;;
73693;SDS011;61997;53.974;11.670;2023-03-31T06:33:11;13.45;;;6.45;;
73693;SDS011;61997;53.974;11.670;2023-03-31T06:35:37;11.90;;;6.65;;
73693;SDS011;61997;53.974;11.670;2023-03-31T06:38:03;11.60;;;6.80;;
73693;SDS011;61997;53.974;11.670;2023-03-31T06:40:29;11.27;;;6.15;;
73693;SDS011;61997;53.974;11.670;2023-03-31T06:42:54;10.88;;;6.63;;
73693;SDS011;61997;53.974;11.670;2023-03-31T06:45:20;9.63;;;6.30;;
73693;SDS011;61997;53.974;11.670;2023-03-31T06:47:47;11.43;;;6.65;;
73693;SDS011;61997;53.974;11.670;2023-03-31T06:50:12;9.60;;;6.03;;
73693;SDS011;61997;53.974;11.670;2023-03-31T06:52:38;11.63;;;6.30;;
73693;SDS011;61997;53.974;11.670;2023-03-31T06:55:05;10.98;;;6.07;;
73693;SDS011;61997;53.974;11.670;2023-03-31T06:57:31;10.25;;;5.90;;
73693;SDS011;61997;53.974;11.670;2023-03-31T06:59:58;11.38;;;5.70;;
73693;SDS011;61997;53.974;11.670;2023-03-31T07:02:23;11.73;;;6.25;;
73693;SDS011;61997;53.974;11.670;2023-03-31T07:04:49;12.02;;;5.88;;
73693;SDS011;61997;53.974;11.670;2023-03-31T07:07:14;9.50;;;5.40;;
73693;SDS011;61997;53.974;11.670;2023-03-31T07:09:40;12.43;;;6.18;;
73693;SDS011;61997;53.974;11.670;2023-03-31T07:12:05;13.55;;;6.68;;
73693;SDS011;61997;53.974;11.670;2023-03-31T07:14:31;11.02;;;5.85;;
73693;SDS011;61997;53.974;11.670;2023-03-31T07:16:57;10.10;;;5.32;;
73693;SDS011;61997;53.974;11.670;2023-03-31T07:19:22;10.15;;;5.82;;
73693;SDS011;61997;53.974;11.670;2023-03-31T07:21:48;10.68;;;6.03;;
73693;SDS011;61997;53.974;11.670;2023-03-31T07:24:13;10.38;;;6.30;;
73693;SDS011;61997;53.974;11.670;2023-03-31T07:26:39;10.50;;;5.68;;
73693;SDS011;61997;53.974;11.670;2023-03-31T07:29:04;8.90;;;5.72;;
73693;SDS011;61997;53.974;11.670;2023-03-31T07:31:30;8.02;;;5.55;;
73693;SDS011;61997;53.974;11.670;2023-03-31T07:33:56;9.43;;;5.25;;
73693;SDS011;61997;53.974;11.670;2023-03-31T07:36:21;11.02;;;5.85;;
73693;SDS011;61997;53.974;11.670;2023-03-31T07:38:47;10.00;;;5.13;;
73693;SDS011;61997;53.974;11.670;2023-03-31T07:41:14;10.05;;;5.10;;
73693;SDS011;61997;53.974;11.670;2023-03-31T07:43:41;10.90;;;5.20;;
73693;SDS011;61997;53.974;11.670;2023-03-31T07:46:12;8.80;;;5.00;;
73693;SDS011;61997;53.974;11.670;2023-03-31T07:48:44;8.93;;;5.55;;
73693;SDS011;61997;53.974;11.670;2023-03-31T07:51:11;9.05;;;5.15;;
73693;SDS011;61997;53.974;11.670;2023-03-31T07:53:37;8.23;;;4.80;;
73693;SDS011;61997;53.974;11.670;2023-03-31T07:56:03;8.65;;;5.15;;
73693;SDS011;61997;53.974;11.670;2023-03-31T07:58:28;8.15;;;4.57;;
73693;SDS011;61997;53.974;11.670;2023-03-31T08:00:54;8.32;;;4.50;;
73693;SDS011;61997;53.974;11.670;2023-03-31T08:03:19;8.35;;;5.13;;
73693;SDS011;61997;53.974;11.670;2023-03-31T08:05:45;8.43;;;5.05;;
73693;SDS011;61997;53.974;11.670;2023-03-31T08:08:10;8.88;;;4.80;;
73693;SDS011;61997;53.974;11.670;2023-03-31T08:10:35;11.00;;;5.13;;
73693;SDS011;61997;53.974;11.670;2023-03-31T08:13:01;8.30;;;4.82;;
73693;SDS011;61997;53.974;11.670;2023-03-31T08:15:26;8.90;;;4.65;;
73693;SDS011;61997;53.974;11.670;2023-03-31T08:17:52;8.38;;;5.25;;
73693;SDS011;61997;53.974;11.670;2023-03-31T08:20:17;9.10;;;4.75;;
73693;SDS011;61997;53.974;11.670;2023-03-31T08:22:42;9.45;;;5.40;;
73693;SDS011;61997;53.974;11.670;2023-03-31T08:25:08;8.93;;;4.45;;
73693;SDS011;61997;53.974;11.670;2023-03-31T08:27:34;9.15;;;4.65;;
73693;SDS011;61997;53.974;11.670;2023-03-31T08:30:00;8.40;;;4.32;;
73693;SDS011;61997;53.974;11.670;2023-03-31T08:32:29;9.05;;;4.53;;
73693;SDS011;61997;53.974;11.670;2023-03-31T08:34:57;10.32;;;5.40;;
73693;SDS011;61997;53.974;11.670;2023-03-31T08:37:23;8.55;;;4.75;;
73693;SDS011;61997;53.974;11.670;2023-03-31T08:39:49;10.02;;;4.82;;
73693;SDS011;61997;53.974;11.670;2023-03-31T08:42:15;7.88;;;4.85;;
73693;SDS011;61997;53.974;11.670;2023-03-31T08:45:05;9.90;;;4.78;;
73693;SDS011;61997;53.974;11.670;2023-03-31T08:50:06;7.57;;;4.22;;
73693;SDS011;61997;53.974;11.670;2023-03-31T08:52:36;9.20;;;5.47;;
73693;SDS011;61997;53.974;11.670;2023-03-31T08:55:19;9.48;;;5.25;;
73693;SDS011;61997;53.974;11.670;2023-03-31T08:58:16;9.00;;;4.63;;
73693;SDS011;61997;53.974;11.670;2023-03-31T09:00:50;7.50;;;4.95;;
73693;SDS011;61997;53.974;11.670;2023-03-31T09:03:27;9.52;;;4.93;;
73693;SDS011;61997;53.974;11.670;2023-03-31T09:06:01;10.25;;;4.68;;
73693;SDS011;61997;53.974;11.670;2023-03-31T09:11:07;9.02;;;5.47;;
73693;SDS011;61997;53.974;11.670;2023-03-31T09:13:44;11.07;;;5.80;;
73693;SDS011;61997;53.974;11.670;2023-03-31T09:20:11;8.73;;;5.07;;
73693;SDS011;61997;53.974;11.670;2023-03-31T09:22:19;8.65;;;5.00;;
73693;SDS011;61997;53.974;11.670;2023-03-31T09:24:58;11.73;;;5.55;;
73693;SDS011;61997;53.974;11.670;2023-03-31T09:27:28;11.10;;;5.30;;
73693;SDS011;61997;53.974;11.670;2023-03-31T09:29:57;11.18;;;4.70;;
73693;SDS011;61997;53.974;11.670;2023-03-31T09:32:28;10.30;;;5.25;;
73693;SDS011;61997;53.974;11.670;2023-03-31T09:37:21;9.32;;;4.50;;
73693;SDS011;61997;53.974;11.670;2023-03-31T09:39:47;9.63;;;5.18;;
73693;SDS011;61997;53.974;11.670;2023-03-31T09:42:13;8.30;;;4.80;;
73693;SDS011;61997;53.974;11.670;2023-03-31T09:44:39;9.60;;;5.28;;
73693;SDS011;61997;53.974;11.670;2023-03-31T09:47:11;9.23;;;5.03;;
73693;SDS011;61997;53.974;11.670;2023-03-31T09:49:40;8.13;;;4.80;;
73693;SDS011;61997;53.974;11.670;2023-03-31T09:52:52;11.38;;;5.13;;
73693;SDS011;61997;53.974;11.670;2023-03-31T09:55:16;12.07;;;6.43;;
73693;SDS011;61997;53.974;11.670;2023-03-31T09:57:42;11.52;;;5.85;;
73693;SDS011;61997;53.974;11.670;2023-03-31T10:02:46;11.20;;;6.65;;
73693;SDS011;61997;53.974;11.670;2023-03-31T10:05:38;12.75;;;7.38;;
73693;SDS011;61997;53.974;11.670;2023-03-31T10:08:23;15.15;;;8.25;;
73693;SDS011;61997;53.974;11.670;2023-03-31T10:13:44;16.45;;;8.80;;
73693;SDS011;61997;53.974;11.670;2023-03-31T10:16:22;18.70;;;9.05;;
73693;SDS011;61997;53.974;11.670;2023-03-31T10:18:53;18.92;;;9.52;;
73693;SDS011;61997;53.974;11.670;2023-03-31T10:23:49;20.63;;;10.63;;
73693;SDS011;61997;53.974;11.670;2023-03-31T10:26:16;21.70;;;10.93;;
73693;SDS011;61997;53.974;11.670;2023-03-31T10:28:47;19.08;;;10.70;;
73693;SDS011;61997;53.974;11.670;2023-03-31T10:31:19;20.25;;;11.60;;
73693;SDS011;61997;53.974;11.670;2023-03-31T10:33:49;23.05;;;12.00;;
73693;SDS011;61997;53.974;11.670;2023-03-31T10:36:25;21.30;;;13.18;;
73693;SDS011;61997;53.974;11.670;2023-03-31T10:38:52;23.15;;;13.45;;
73693;SDS011;61997;53.974;11.670;2023-03-31T10:41:21;23.75;;;12.32;;
73693;SDS011;61997;53.974;11.670;2023-03-31T10:43:49;20.73;;;12.13;;
73693;SDS011;61997;53.974;11.670;2023-03-31T10:46:18;25.42;;;13.05;;
73693;SDS011;61997;53.974;11.670;2023-03-31T10:48:44;19.38;;;12.13;;
73693;SDS011;61997;53.974;11.670;2023-03-31T10:51:15;22.85;;;13.05;;
73693;SDS011;61997;53.974;11.670;2023-03-31T10:53:49;24.17;;;13.52;;
73693;SDS011;61997;53.974;11.670;2023-03-31T11:13:40;24.02;;;14.55;;
73693;SDS011;61997;53.974;11.670;2023-03-31T11:16:38;25.55;;;14.68;;
73693;SDS011;61997;53.974;11.670;2023-03-31T11:28:07;24.75;;;14.75;;
73693;SDS011;61997;53.974;11.670;2023-03-31T11:31:11;26.75;;;14.43;;
73693;SDS011;61997;53.974;11.670;2023-03-31T11:41:52;24.98;;;15.32;;
73693;SDS011;61997;53.974;11.670;2023-03-31T11:44:20;27.00;;;15.18;;
73693;SDS011;61997;53.974;11.670;2023-03-31T11:46:52;28.23;;;14.77;;
73693;SDS011;61997;53.974;11.670;2023-03-31T11:49:30;24.67;;;15.43;;
73693;SDS011;61997;53.974;11.670;2023-03-31T11:52:05;25.77;;;15.15;;
73693;SDS011;61997;53.974;11.670;2023-03-31T11:57:37;30.58;;;15.73;;
73693;SDS011;61997;53.974;11.670;2023-03-31T12:00:15;27.55;;;14.77;;
73693;SDS011;61997;53.974;11.670;2023-03-31T12:03:01;29.33;;;15.70;;
73693;SDS011;61997;53.974;11.670;2023-03-31T12:05:29;27.77;;;15.30;;
73693;SDS011;61997;53.974;11.670;2023-03-31T12:08:04;29.23;;;16.98;;
73693;SDS011;61997;53.974;11.670;2023-03-31T12:10:41;28.95;;;16.52;;
73693;SDS011;61997;53.974;11.670;2023-03-31T12:16:00;31.80;;;17.38;;
73693;SDS011;61997;53.974;11.670;2023-03-31T12:18:31;32.42;;;16.90;;
73693;SDS011;61997;53.974;11.670;2023-03-31T12:21:00;29.35;;;15.98;;
73693;SDS011;61997;53.974;11.670;2023-03-31T12:23:28;29.52;;;16.58;;
73693;SDS011;61997;53.974;11.670;2023-03-31T12:28:31;33.50;;;17.80;;
73693;SDS011;61997;53.974;11.670;2023-03-31T12:30:58;28.27;;;16.88;;
73693;SDS011;61997;53.974;11.670;2023-03-31T12:33:32;29.80;;;17.10;;
73693;SDS011;61997;53.974;11.670;2023-03-31T12:36:23;28.58;;;17.42;;
73693;SDS011;61997;53.974;11.670;2023-03-31T12:47:33;30.70;;;16.80;;
73693;SDS011;61997;53.974;11.670;2023-03-31T13:06:02;33.47;;;17.65;;
73693;SDS011;61997;53.974;11.670;2023-03-31T13:08:47;30.38;;;16.63;;
73693;SDS011;61997;53.974;11.670;2023-03-31T13:11:13;31.08;;;16.60;;
73693;SDS011;61997;53.974;11.670;2023-03-31T13:13:40;31.20;;;17.48;;
73693;SDS011;61997;53.974;11.670;2023-03-31T13:16:09;28.67;;;16.80;;
73693;SDS011;61997;53.974;11.670;2023-03-31T13:18:34;31.10;;;17.55;;
73693;SDS011;61997;53.974;11.670;2023-03-31T13:21:01;33.30;;;17.70;;
73693;SDS011;61997;53.974;11.670;2023-03-31T13:23:34;33.72;;;18.15;;
73693;SDS011;61997;53.974;11.670;2023-03-31T13:26:01;32.72;;;17.58;;
73693;SDS011;61997;53.974;11.670;2023-03-31T13:28:31;29.95;;;17.95;;
73693;SDS011;61997;53.974;11.670;2023-03-31T13:30:59;29.92;;;17.60;;
73693;SDS011;61997;53.974;11.670;2023-03-31T13:33:30;29.38;;;16.52;;
73693;SDS011;61997;53.974;11.670;2023-03-31T13:36:18;28.17;;;17.42;;
73693;SDS011;61997;53.974;11.670;2023-03-31T13:44:01;29.45;;;16.30;;
73693;SDS011;61997;53.974;11.670;2023-03-31T13:46:50;28.10;;;16.85;;
73693;SDS011;61997;53.974;11.670;2023-03-31T13:52:10;28.00;;;16.00;;
73693;SDS011;61997;53.974;11.670;2023-03-31T14:11:15;27.13;;;15.57;;
73693;SDS011;61997;53.974;11.670;2023-03-31T14:13:41;25.63;;;15.65;;
73693;SDS011;61997;53.974;11.670;2023-03-31T14:16:07;26.38;;;15.63;;
73693;SDS011;61997;53.974;11.670;2023-03-31T14:18:34;28.77;;;15.90;;
73693;SDS011;61997;53.974;11.670;2023-03-31T14:21:21;31.10;;;16.73;;
73693;SDS011;61997;53.974;11.670;2023-03-31T14:38:04;27.63;;;15.40;;
73693;SDS011;61997;53.974;11.670;2023-03-31T14:40:33;28.23;;;14.30;;
73693;SDS011;61997;53.974;11.670;2023-03-31T14:42:58;29.58;;;16.73;;
73693;SDS011;61997;53.974;11.670;2023-03-31T14:45:24;24.65;;;15.18;;
73693;SDS011;61997;53.974;11.670;2023-03-31T14:47:54;28.85;;;15.80;;
73693;SDS011;61997;53.974;11.670;2023-03-31T14:50:21;27.92;;;15.13;;
73693;SDS011;61997;53.974;11.670;2023-03-31T14:52:47;27.13;;;14.25;;
73693;SDS011;61997;53.974;11.670;2023-03-31T14:55:14;28.25;;;14.95;;
73693;SDS011;61997;53.974;11.670;2023-03-31T14:57:40;26.10;;;14.82;;
73693;SDS011;61997;53.974;11.670;2023-03-31T15:00:07;30.23;;;15.73;;
73693;SDS011;61997;53.974;11.670;2023-03-31T15:02:36;24.02;;;13.77;;
73693;SDS011;61997;53.974;11.670;2023-03-31T15:05:05;26.23;;;14.63;;
73693;SDS011;61997;53.974;11.670;2023-03-31T15:07:33;26.52;;;14.45;;
73693;SDS011;61997;53.974;11.670;2023-03-31T15:10:00;25.17;;;14.32;;
73693;SDS011;61997;53.974;11.670;2023-03-31T15:12:26;27.23;;;14.88;;
73693;SDS011;61997;53.974;11.670;2023-03-31T15:15:25;24.92;;;14.13;;
73693;SDS011;61997;53.974;11.670;2023-03-31T15:17:45;24.65;;;14.23;;
73693;SDS011;61997;53.974;11.670;2023-03-31T15:20:30;26.85;;;14.75;;
73693;SDS011;61997;53.974;11.670;2023-03-31T15:23:00;25.42;;;13.35;;
73693;SDS011;61997;53.974;11.670;2023-03-31T15:25:32;25.58;;;14.18;;
73693;SDS011;61997;53.974;11.670;2023-03-31T15:27:59;23.80;;;14.57;;
73693;SDS011;61997;53.974;11.670;2023-03-31T15:30:34;25.70;;;13.90;;
73693;SDS011;61997;53.974;11.670;2023-03-31T15:33:00;23.92;;;13.57;;
73693;SDS011;61997;53.974;11.670;2023-03-31T15:35:32;24.38;;;14.30;;
73693;SDS011;61997;53.974;11.670;2023-03-31T15:37:59;26.98;;;15.38;;
73693;SDS011;61997;53.974;11.670;2023-03-31T15:40:31;25.60;;;13.52;;
73693;SDS011;61997;53.974;11.670;2023-03-31T15:45:37;23.75;;;13.50;;
73693;SDS011;61997;53.974;11.670;2023-03-31T15:49:17;24.75;;;13.05;;
73693;SDS011;61997;53.974;11.670;2023-03-31T15:53:51;22.73;;;13.10;;
73693;SDS011;61997;53.974;11.670;2023-03-31T15:56:34;26.50;;;14.23;;
73693;SDS011;61997;53.974;11.670;2023-03-31T16:01:36;20.80;;;13.07;;
73693;SDS011;61997;53.974;11.670;2023-03-31T16:04:06;25.00;;;13.50;;
73693;SDS011;61997;53.974;11.670;2023-03-31T16:06:38;26.20;;;14.43;;
73693;SDS011;61997;53.974;11.670;2023-03-31T16:09:15;20.90;;;12.50;;
73693;SDS011;61997;53.974;11.670;2023-03-31T16:11:58;22.80;;;14.00;;
73693;SDS011;61997;53.974;11.670;2023-03-31T16:14:33;24.40;;;13.32;;
73693;SDS011;61997;53.974;11.670;2023-03-31T16:17:10;18.65;;;11.82;;
73693;SDS011;61997;53.974;11.670;2023-03-31T16:19:39;23.80;;;13.15;;
73693;SDS011;61997;53.974;11.670;2023-03-31T16:22:10;24.20;;;12.57;;
73693;SDS011;61997;53.974;11.670;2023-03-31T16:24:41;22.60;;;12.27;;
73693;SDS011;61997;53.974;11.670;2023-03-31T16:27:06;22.23;;;13.52;;
73693;SDS011;61997;53.974;11.670;2023-03-31T16:29:33;23.55;;;12.80;;
73693;SDS011;61997;53.974;11.670;2023-03-31T16:37:22;20.20;;;12.70;;
73693;SDS011;61997;53.974;11.670;2023-03-31T16:39:47;23.70;;;12.90;;
73693;SDS011;61997;53.974;11.670;2023-03-31T16:42:13;23.02;;;12.25;;
73693;SDS011;61997;53.974;11.670;2023-03-31T16:44:38;19.38;;;12.02;;
73693;SDS011;61997;53.974;11.670;2023-03-31T16:47:04;19.83;;;12.25;;
73693;SDS011;61997;53.974;11.670;2023-03-31T16:49:30;21.35;;;11.95;;
73693;SDS011;61997;53.974;11.670;2023-03-31T16:51:56;20.02;;;11.35;;
73693;SDS011;61997;53.974;11.670;2023-03-31T16:54:23;21.92;;;12.30;;
73693;SDS011;61997;53.974;11.670;2023-03-31T16:56:48;20.00;;;11.95;;
73693;SDS011;61997;53.974;11.670;2023-03-31T16:59:14;21.77;;;12.77;;
73693;SDS011;61997;53.974;11.670;2023-03-31T17:01:39;22.23;;;11.57;;
73693;SDS011;61997;53.974;11.670;2023-03-31T17:04:05;22.17;;;11.95;;
73693;SDS011;61997;53.974;11.670;2023-03-31T17:06:31;21.92;;;11.98;;
73693;SDS011;61997;53.974;11.670;2023-03-31T17:08:57;23.48;;;11.85;;
73693;SDS011;61997;53.974;11.670;2023-03-31T17:11:22;22.90;;;12.00;;
73693;SDS011;61997;53.974;11.670;2023-03-31T17:13:47;22.60;;;11.10;;
73693;SDS011;61997;53.974;11.670;2023-03-31T17:16:13;21.05;;;11.82;;
73693;SDS011;61997;53.974;11.670;2023-03-31T17:18:41;19.50;;;10.85;;
73693;SDS011;61997;53.974;11.670;2023-03-31T17:21:08;22.83;;;11.13;;
73693;SDS011;61997;53.974;11.670;2023-03-31T17:23:35;21.20;;;12.07;;
73693;SDS011;61997;53.974;11.670;2023-03-31T17:26:01;19.70;;;11.55;;
73693;SDS011;61997;53.974;11.670;2023-03-31T17:28:28;21.02;;;11.20;;
73693;SDS011;61997;53.974;11.670;2023-03-31T17:30:54;17.80;;;10.63;;